SBRJ/SDU METAR and TAF weather

Enter ICAO airport designator
Station Type Date Time Source
SBRJ METAR 2021/05/15 22:00 UTC NOAA

SBRJ 152200Z 14006KT CAVOK 23/18 Q1018


Station Type Date Time Source
SBRJ Decoded METAR 2021/05/15 22:00 UTC NOAA

Rio De Janeiro Aeroporto , Brazil (SBRJ) 22-54S 043-10W
May 15, 2021 - 06:00 PM EDT / 2021.05.15 2200 UTC
Wind: from the SE (140 degrees) at 7 MPH (6 KT):0
Visibility: greater than 7 mile(s):0
Temperature: 73 F (23 C)
Dew Point: 64 F (18 C)
Relative Humidity: 73%
Pressure (altimeter): 30.06 in. Hg (1018 hPa)
ob: SBRJ 152200Z 14006KT CAVOK 23/18 Q1018
cycle: 22

Station Type Date Time Source
SBRJ TAF 2021/05/15 18:48 UTC NOAA

TAF SBRJ 151500Z 1518/1606 15010KT 9999 SCT025 TX23/1519Z TN20/1606Z
BECMG 1600/1602 05005KT
RMK PGY

Example: see airport list